Winnemucca, NV (89445)

3:07 AM PST on January 21, 2017 (GMT -0800)
Rose Creek | | Change Station
Active Advisory: Winter Storm Watch

Elev 4300 ft 40.97 °N, 117.74 °W | Updated 18 seconds ago

Overcast
Overcast
30.8 °F
Feels Like 25 °F
N
6.0
Wind Variable Wind from SE

Today
High -- | Low -- °F
--% Chance of Precip.
Yesterday
High -- | Low -- °F
Precip. -- in
Pressure 29.37 in
Visibility 10.0 miles
Clouds Overcast 5500 ft
Windchill 25 °F
Dew Point 29 °F
Humidity 93%
Rainfall 0.00 in
Snow Depth Not available.
7:10 AM 4:54 PM
Waning Crescent, 36% visible
METAR KWMC 211056Z AUTO 17010KT 10SM OVC055 M01/M02 A2935 RMK AO2 SLP945 T10061017
Pressure 29.37 in
Visibility 10.0 miles
Clouds Overcast 5500 ft
Windchill 25 °F
Dew Point 29 °F
Humidity 93%
Rainfall 0.00 in
Snow Depth Not available.
7:10 AM 4:54 PM
Waning Crescent, 36% visible
METAR KWMC 211056Z AUTO 17010KT 10SM OVC055 M01/M02 A2935 RMK AO2 SLP945 T10061017

Get Your Daily Forecast Email!

Thanks for signing up!

Be on the lookout for a verification email in your inbox.

You'll start receiving the daily forecast at 8 AM.

×

10-Day Weather Forecast

Almanac

Astronomy

Jan. 21, 2017 Rise Set
Actual Time
Civil Twilight
Nautical Twilight
Astronomical Twilight
Moon
Length of Visible Light
Length of Day
Tomorrow will be .
, % of the Moon is Illuminated

Today's Extremes

State Highs State Lows

Community

WunderPhotos

Upload Photos

1,962,540 photos uploaded!

WunderBlog® & News

Nearby

Air Quality

  Air Quality AQ Index Pollutant
Not available.

Snow Depth

Station Depth Elevation

Earthquake Activity

City Distance Mag. Time & Date
Minimum magnitude displayed is 2.5.

Coastal Water Temperatures

Place Temperature

Stations

Nearby Weather Stations

Station Location Temp. Windchill Dew Point Humidity Wind Precip. Elev Updated Type
                   

Watches & Warnings

Winter Storm Watch
Issued: 2:41 AM PST Jan. 21, 2017 – National Weather Service

... Winter Storm Watch in effect from late tonight through Monday
morning...

The National Weather Service in Elko has issued a Winter Storm
Watch... which is in effect from late tonight through Monday
morning.

* Tonight through Monday snow accumulations... 4-8 inches in the
valleys and 10-20 inches mountains.

* Sunday through Monday winds... south 10 to 20 mph gusting to 35
mph.

* Impacts... main impacts will be to travel along Highway 6,
Highway 93, and Eureka Highway, especially at summits and
passes. Icy spots and poor visibility will make travel difficult
at times. Blowing snow will affect travel from Sunday through
early Monday. Travel or recreation in the mountains will be
hazardous, if not impossible.

* For a detailed view of the hazard area, visit
http://www.Wrh.NOAA.Gov/map.

Precautionary/preparedness actions...

A Winter Storm Watch means there is a potential for significant
snow, sleet, or ice accumulations that may impact travel.
Continue to monitor the latest forecasts.